sensor_id;sensor_type;location;lat;lon;timestamp;temperature;humidity
4811;DHT22;2419;51.276;6.472;2022-11-21T00:01:19;7.20;99.90
4811;DHT22;2419;51.276;6.472;2022-11-21T00:03:48;7.20;99.90
4811;DHT22;2419;51.276;6.472;2022-11-21T00:06:16;7.20;99.90
4811;DHT22;2419;51.276;6.472;2022-11-21T00:08:45;7.20;99.90
4811;DHT22;2419;51.276;6.472;2022-11-21T00:11:14;7.20;99.90
4811;DHT22;2419;51.276;6.472;2022-11-21T00:13:42;7.10;99.90
4811;DHT22;2419;51.276;6.472;2022-11-21T00:16:14;7.10;99.90
4811;DHT22;2419;51.276;6.472;2022-11-21T00:18:42;7.10;99.90
4811;DHT22;2419;51.276;6.472;2022-11-21T00:21:13;7.10;99.90
4811;DHT22;2419;51.276;6.472;2022-11-21T00:23:41;7.20;99.90
4811;DHT22;2419;51.276;6.472;2022-11-21T00:26:11;7.10;99.90
4811;DHT22;2419;51.276;6.472;2022-11-21T00:28:39;7.10;99.90
4811;DHT22;2419;51.276;6.472;2022-11-21T00:31:17;7.10;99.90
4811;DHT22;2419;51.276;6.472;2022-11-21T00:33:46;7.10;99.90
4811;DHT22;2419;51.276;6.472;2022-11-21T00:36:14;7.10;99.90
4811;DHT22;2419;51.276;6.472;2022-11-21T00:38:42;7.10;99.90
4811;DHT22;2419;51.276;6.472;2022-11-21T00:41:10;7.10;99.90
4811;DHT22;2419;51.276;6.472;2022-11-21T00:43:39;7.00;99.90
4811;DHT22;2419;51.276;6.472;2022-11-21T00:46:07;6.90;99.90
4811;DHT22;2419;51.276;6.472;2022-11-21T00:48:36;6.80;99.90
4811;DHT22;2419;51.276;6.472;2022-11-21T00:51:04;6.70;99.90
4811;DHT22;2419;51.276;6.472;2022-11-21T00:53:32;6.50;99.90
4811;DHT22;2419;51.276;6.472;2022-11-21T00:56:00;6.50;99.90
4811;DHT22;2419;51.276;6.472;2022-11-21T00:58:28;6.50;99.90
4811;DHT22;2419;51.276;6.472;2022-11-21T01:01:08;6.50;99.90
4811;DHT22;2419;51.276;6.472;2022-11-21T01:03:38;6.50;99.90
4811;DHT22;2419;51.276;6.472;2022-11-21T01:06:07;6.50;99.90
4811;DHT22;2419;51.276;6.472;2022-11-21T01:08:37;6.50;99.90
4811;DHT22;2419;51.276;6.472;2022-11-21T01:11:06;6.40;99.90
4811;DHT22;2419;51.276;6.472;2022-11-21T01:13:35;6.30;99.90
4811;DHT22;2419;51.276;6.472;2022-11-21T01:16:05;6.20;99.90
4811;DHT22;2419;51.276;6.472;2022-11-21T01:18:34;6.20;99.90
4811;DHT22;2419;51.276;6.472;2022-11-21T01:21:05;6.10;99.90
4811;DHT22;2419;51.276;6.472;2022-11-21T01:23:34;6.00;99.90
4811;DHT22;2419;51.276;6.472;2022-11-21T01:26:02;6.00;99.90
4811;DHT22;2419;51.276;6.472;2022-11-21T01:28:31;5.90;99.90
4811;DHT22;2419;51.276;6.472;2022-11-21T01:31:03;5.90;99.90
4811;DHT22;2419;51.276;6.472;2022-11-21T01:33:35;5.80;99.90
4811;DHT22;2419;51.276;6.472;2022-11-21T01:36:20;5.70;99.90
4811;DHT22;2419;51.276;6.472;2022-11-21T01:38:50;5.70;99.90
4811;DHT22;2419;51.276;6.472;2022-11-21T01:41:20;5.70;99.90
4811;DHT22;2419;51.276;6.472;2022-11-21T01:43:49;5.60;99.90
4811;DHT22;2419;51.276;6.472;2022-11-21T01:46:18;5.60;99.90
4811;DHT22;2419;51.276;6.472;2022-11-21T01:48:51;5.50;99.90
4811;DHT22;2419;51.276;6.472;2022-11-21T01:51:25;5.50;99.90
4811;DHT22;2419;51.276;6.472;2022-11-21T01:53:58;5.40;99.90
4811;DHT22;2419;51.276;6.472;2022-11-21T01:56:29;5.40;99.90
4811;DHT22;2419;51.276;6.472;2022-11-21T01:59:02;5.40;99.90
4811;DHT22;2419;51.276;6.472;2022-11-21T02:01:32;5.40;99.90
4811;DHT22;2419;51.276;6.472;2022-11-21T02:04:02;5.40;99.90
4811;DHT22;2419;51.276;6.472;2022-11-21T02:06:34;5.40;99.90
4811;DHT22;2419;51.276;6.472;2022-11-21T02:09:04;5.30;99.90
4811;DHT22;2419;51.276;6.472;2022-11-21T02:11:36;5.30;99.90
4811;DHT22;2419;51.276;6.472;2022-11-21T02:14:05;5.30;99.90
4811;DHT22;2419;51.276;6.472;2022-11-21T02:16:34;5.20;99.90
4811;DHT22;2419;51.276;6.472;2022-11-21T02:19:03;5.30;99.90
4811;DHT22;2419;51.276;6.472;2022-11-21T02:21:40;5.30;99.90
4811;DHT22;2419;51.276;6.472;2022-11-21T02:24:15;5.20;99.90
4811;DHT22;2419;51.276;6.472;2022-11-21T02:26:46;5.30;99.90
4811;DHT22;2419;51.276;6.472;2022-11-21T02:29:15;5.30;99.90
4811;DHT22;2419;51.276;6.472;2022-11-21T02:31:43;5.30;99.90
4811;DHT22;2419;51.276;6.472;2022-11-21T02:34:12;5.30;99.90
4811;DHT22;2419;51.276;6.472;2022-11-21T02:36:42;5.30;99.90
4811;DHT22;2419;51.276;6.472;2022-11-21T02:39:14;5.30;99.90
4811;DHT22;2419;51.276;6.472;2022-11-21T02:41:49;5.20;99.90
4811;DHT22;2419;51.276;6.472;2022-11-21T02:44:23;5.20;99.90
4811;DHT22;2419;51.276;6.472;2022-11-21T02:46:53;5.20;99.90
4811;DHT22;2419;51.276;6.472;2022-11-21T02:49:28;5.30;99.90
4811;DHT22;2419;51.276;6.472;2022-11-21T02:51:57;5.20;99.90
4811;DHT22;2419;51.276;6.472;2022-11-21T02:54:25;5.20;99.90
4811;DHT22;2419;51.276;6.472;2022-11-21T02:56:55;5.20;99.90
4811;DHT22;2419;51.276;6.472;2022-11-21T02:59:23;5.30;99.90
4811;DHT22;2419;51.276;6.472;2022-11-21T03:01:51;5.30;99.90
4811;DHT22;2419;51.276;6.472;2022-11-21T03:04:20;5.30;99.90
4811;DHT22;2419;51.276;6.472;2022-11-21T03:06:48;5.20;99.90
4811;DHT22;2419;51.276;6.472;2022-11-21T03:09:16;5.30;99.90
4811;DHT22;2419;51.276;6.472;2022-11-21T03:11:44;5.20;99.90
4811;DHT22;2419;51.276;6.472;2022-11-21T03:14:13;5.20;99.90
4811;DHT22;2419;51.276;6.472;2022-11-21T03:16:41;5.30;99.90
4811;DHT22;2419;51.276;6.472;2022-11-21T03:19:09;5.20;99.90
4811;DHT22;2419;51.276;6.472;2022-11-21T03:21:37;5.20;99.90
4811;DHT22;2419;51.276;6.472;2022-11-21T03:24:06;5.30;99.90
4811;DHT22;2419;51.276;6.472;2022-11-21T03:26:34;5.30;99.90
4811;DHT22;2419;51.276;6.472;2022-11-21T03:29:03;5.30;99.90
4811;DHT22;2419;51.276;6.472;2022-11-21T03:31:32;5.30;99.90
4811;DHT22;2419;51.276;6.472;2022-11-21T03:34:00;5.30;99.90
4811;DHT22;2419;51.276;6.472;2022-11-21T03:36:28;5.20;99.90
4811;DHT22;2419;51.276;6.472;2022-11-21T03:38:57;5.20;99.90
4811;DHT22;2419;51.276;6.472;2022-11-21T03:41:25;5.20;99.90
4811;DHT22;2419;51.276;6.472;2022-11-21T03:43:58;5.20;99.90
4811;DHT22;2419;51.276;6.472;2022-11-21T03:46:27;5.20;99.90
4811;DHT22;2419;51.276;6.472;2022-11-21T03:48:57;5.30;99.90
4811;DHT22;2419;51.276;6.472;2022-11-21T03:51:26;5.20;99.90
4811;DHT22;2419;51.276;6.472;2022-11-21T03:53:54;5.20;99.90
4811;DHT22;2419;51.276;6.472;2022-11-21T03:56:22;5.30;99.90
4811;DHT22;2419;51.276;6.472;2022-11-21T03:58:51;5.30;99.90
4811;DHT22;2419;51.276;6.472;2022-11-21T04:01:19;5.30;99.90
4811;DHT22;2419;51.276;6.472;2022-11-21T04:03:48;5.30;99.90
4811;DHT22;2419;51.276;6.472;2022-11-21T04:06:20;5.20;99.90
4811;DHT22;2419;51.276;6.472;2022-11-21T04:08:49;5.20;99.90
4811;DHT22;2419;51.276;6.472;2022-11-21T04:11:17;5.20;99.90
4811;DHT22;2419;51.276;6.472;2022-11-21T04:13:47;5.20;99.90
4811;DHT22;2419;51.276;6.472;2022-11-21T04:16:15;5.10;99.90
4811;DHT22;2419;51.276;6.472;2022-11-21T04:18:44;5.10;99.90
4811;DHT22;2419;51.276;6.472;2022-11-21T04:21:12;5.10;99.90
4811;DHT22;2419;51.276;6.472;2022-11-21T04:23:41;5.10;99.90
4811;DHT22;2419;51.276;6.472;2022-11-21T04:26:12;5.10;99.90
4811;DHT22;2419;51.276;6.472;2022-11-21T04:28:40;5.10;99.90
4811;DHT22;2419;51.276;6.472;2022-11-21T04:31:09;5.10;99.90
4811;DHT22;2419;51.276;6.472;2022-11-21T04:33:37;5.10;99.90
4811;DHT22;2419;51.276;6.472;2022-11-21T04:36:06;5.10;99.90
4811;DHT22;2419;51.276;6.472;2022-11-21T04:38:35;5.10;99.90
4811;DHT22;2419;51.276;6.472;2022-11-21T04:41:05;5.10;99.90
4811;DHT22;2419;51.276;6.472;2022-11-21T04:43:33;5.00;99.90
4811;DHT22;2419;51.276;6.472;2022-11-21T04:46:02;5.00;99.90
4811;DHT22;2419;51.276;6.472;2022-11-21T04:48:30;5.00;99.90
4811;DHT22;2419;51.276;6.472;2022-11-21T04:50:59;5.00;99.90
4811;DHT22;2419;51.276;6.472;2022-11-21T04:53:27;5.00;99.90
4811;DHT22;2419;51.276;6.472;2022-11-21T04:55:55;5.00;99.90
4811;DHT22;2419;51.276;6.472;2022-11-21T04:58:25;5.00;99.90
4811;DHT22;2419;51.276;6.472;2022-11-21T05:00:53;5.00;99.90
4811;DHT22;2419;51.276;6.472;2022-11-21T05:03:22;5.00;99.90
4811;DHT22;2419;51.276;6.472;2022-11-21T05:05:50;4.90;99.90
4811;DHT22;2419;51.276;6.472;2022-11-21T05:08:18;5.10;99.90
4811;DHT22;2419;51.276;6.472;2022-11-21T05:10:46;5.00;99.90
4811;DHT22;2419;51.276;6.472;2022-11-21T05:13:48;5.00;99.90
4811;DHT22;2419;51.276;6.472;2022-11-21T05:16:16;5.00;99.90
4811;DHT22;2419;51.276;6.472;2022-11-21T05:18:44;4.90;99.90
4811;DHT22;2419;51.276;6.472;2022-11-21T05:21:12;4.90;99.90
4811;DHT22;2419;51.276;6.472;2022-11-21T05:23:40;4.90;99.90
4811;DHT22;2419;51.276;6.472;2022-11-21T05:26:08;4.90;99.90
4811;DHT22;2419;51.276;6.472;2022-11-21T05:28:36;4.90;99.90
4811;DHT22;2419;51.276;6.472;2022-11-21T05:31:06;5.00;99.90
4811;DHT22;2419;51.276;6.472;2022-11-21T05:33:34;5.00;99.90
4811;DHT22;2419;51.276;6.472;2022-11-21T05:36:02;4.90;99.90
4811;DHT22;2419;51.276;6.472;2022-11-21T05:38:30;5.00;99.90
4811;DHT22;2419;51.276;6.472;2022-11-21T05:40:58;5.00;99.90
4811;DHT22;2419;51.276;6.472;2022-11-21T05:43:26;5.00;99.90
4811;DHT22;2419;51.276;6.472;2022-11-21T05:46:15;5.00;99.90
4811;DHT22;2419;51.276;6.472;2022-11-21T05:48:44;5.00;99.90
4811;DHT22;2419;51.276;6.472;2022-11-21T05:51:13;5.10;99.90
4811;DHT22;2419;51.276;6.472;2022-11-21T05:53:42;5.00;99.90
4811;DHT22;2419;51.276;6.472;2022-11-21T05:56:11;5.00;99.90
4811;DHT22;2419;51.276;6.472;2022-11-21T05:58:40;5.00;99.90
4811;DHT22;2419;51.276;6.472;2022-11-21T06:01:10;4.90;99.90
4811;DHT22;2419;51.276;6.472;2022-11-21T06:03:42;5.00;99.90
4811;DHT22;2419;51.276;6.472;2022-11-21T06:06:10;5.00;99.90
4811;DHT22;2419;51.276;6.472;2022-11-21T06:08:41;4.90;99.90
4811;DHT22;2419;51.276;6.472;2022-11-21T06:11:11;5.00;99.90
4811;DHT22;2419;51.276;6.472;2022-11-21T06:13:40;5.00;99.90
4811;DHT22;2419;51.276;6.472;2022-11-21T06:16:10;5.20;99.90
4811;DHT22;2419;51.276;6.472;2022-11-21T06:18:42;5.10;99.90
4811;DHT22;2419;51.276;6.472;2022-11-21T06:21:13;5.00;99.90
4811;DHT22;2419;51.276;6.472;2022-11-21T06:23:42;5.10;99.90
4811;DHT22;2419;51.276;6.472;2022-11-21T06:26:12;5.10;99.90
4811;DHT22;2419;51.276;6.472;2022-11-21T06:28:41;5.10;99.90
4811;DHT22;2419;51.276;6.472;2022-11-21T06:31:11;5.20;99.90
4811;DHT22;2419;51.276;6.472;2022-11-21T06:33:43;5.30;99.90
4811;DHT22;2419;51.276;6.472;2022-11-21T06:36:13;5.30;99.90
4811;DHT22;2419;51.276;6.472;2022-11-21T06:38:42;5.20;99.90
4811;DHT22;2419;51.276;6.472;2022-11-21T06:41:12;5.30;99.90
4811;DHT22;2419;51.276;6.472;2022-11-21T06:43:40;5.30;99.90
4811;DHT22;2419;51.276;6.472;2022-11-21T06:46:09;5.30;99.90
4811;DHT22;2419;51.276;6.472;2022-11-21T06:48:38;5.20;99.90
4811;DHT22;2419;51.276;6.472;2022-11-21T06:51:11;5.30;99.90
4811;DHT22;2419;51.276;6.472;2022-11-21T06:53:39;5.30;99.90
4811;DHT22;2419;51.276;6.472;2022-11-21T06:56:08;5.30;99.90
4811;DHT22;2419;51.276;6.472;2022-11-21T06:58:36;5.30;99.90
4811;DHT22;2419;51.276;6.472;2022-11-21T07:01:05;5.30;99.90
4811;DHT22;2419;51.276;6.472;2022-11-21T07:03:33;5.40;99.90
4811;DHT22;2419;51.276;6.472;2022-11-21T07:06:02;5.30;99.90
4811;DHT22;2419;51.276;6.472;2022-11-21T07:08:33;5.40;99.90
4811;DHT22;2419;51.276;6.472;2022-11-21T07:11:03;5.50;99.90
4811;DHT22;2419;51.276;6.472;2022-11-21T07:13:51;5.50;99.90
4811;DHT22;2419;51.276;6.472;2022-11-21T07:16:19;5.50;99.90
4811;DHT22;2419;51.276;6.472;2022-11-21T07:18:48;5.50;99.90
4811;DHT22;2419;51.276;6.472;2022-11-21T07:21:16;5.50;99.90
4811;DHT22;2419;51.276;6.472;2022-11-21T07:23:45;5.50;99.90
4811;DHT22;2419;51.276;6.472;2022-11-21T07:26:14;5.50;99.90
4811;DHT22;2419;51.276;6.472;2022-11-21T07:28:42;5.60;99.90
4811;DHT22;2419;51.276;6.472;2022-11-21T07:31:10;5.70;99.90
4811;DHT22;2419;51.276;6.472;2022-11-21T07:33:40;5.70;99.90
4811;DHT22;2419;51.276;6.472;2022-11-21T07:36:11;5.80;99.90
4811;DHT22;2419;51.276;6.472;2022-11-21T07:38:39;5.80;99.90
4811;DHT22;2419;51.276;6.472;2022-11-21T07:41:09;5.80;99.90
4811;DHT22;2419;51.276;6.472;2022-11-21T07:43:38;5.80;99.90
4811;DHT22;2419;51.276;6.472;2022-11-21T07:46:06;5.90;99.90
4811;DHT22;2419;51.276;6.472;2022-11-21T07:48:34;6.00;99.90
4811;DHT22;2419;51.276;6.472;2022-11-21T07:51:03;6.10;99.90
4811;DHT22;2419;51.276;6.472;2022-11-21T07:53:32;6.00;99.90
4811;DHT22;2419;51.276;6.472;2022-11-21T07:56:00;6.10;99.90
4811;DHT22;2419;51.276;6.472;2022-11-21T07:58:30;6.20;99.90
4811;DHT22;2419;51.276;6.472;2022-11-21T08:01:02;6.10;99.90
4811;DHT22;2419;51.276;6.472;2022-11-21T08:03:30;6.20;99.90
4811;DHT22;2419;51.276;6.472;2022-11-21T08:06:00;6.20;99.90
4811;DHT22;2419;51.276;6.472;2022-11-21T08:08:29;6.20;99.90
4811;DHT22;2419;51.276;6.472;2022-11-21T08:10:57;6.20;99.90
4811;DHT22;2419;51.276;6.472;2022-11-21T08:13:29;6.30;99.90
4811;DHT22;2419;51.276;6.472;2022-11-21T08:15:58;6.30;99.90
4811;DHT22;2419;51.276;6.472;2022-11-21T08:18:26;6.30;99.90
4811;DHT22;2419;51.276;6.472;2022-11-21T08:20:54;6.40;99.90
4811;DHT22;2419;51.276;6.472;2022-11-21T08:23:22;6.40;99.90
4811;DHT22;2419;51.276;6.472;2022-11-21T08:25:51;6.40;99.90
4811;DHT22;2419;51.276;6.472;2022-11-21T08:28:19;6.40;99.90
4811;DHT22;2419;51.276;6.472;2022-11-21T08:30:48;6.40;99.90
4811;DHT22;2419;51.276;6.472;2022-11-21T08:33:16;6.50;99.90
4811;DHT22;2419;51.276;6.472;2022-11-21T08:35:44;6.40;99.90
4811;DHT22;2419;51.276;6.472;2022-11-21T08:38:12;6.40;99.90
4811;DHT22;2419;51.276;6.472;2022-11-21T08:40:40;6.40;99.90
4811;DHT22;2419;51.276;6.472;2022-11-21T08:43:09;6.40;99.90
4811;DHT22;2419;51.276;6.472;2022-11-21T08:45:37;6.40;99.90
4811;DHT22;2419;51.276;6.472;2022-11-21T08:48:10;6.50;99.90
4811;DHT22;2419;51.276;6.472;2022-11-21T08:50:38;6.60;99.90
4811;DHT22;2419;51.276;6.472;2022-11-21T08:53:06;6.50;99.90
4811;DHT22;2419;51.276;6.472;2022-11-21T08:55:35;6.60;99.90
4811;DHT22;2419;51.276;6.472;2022-11-21T08:58:03;6.60;99.90
4811;DHT22;2419;51.276;6.472;2022-11-21T09:00:31;6.70;99.90
4811;DHT22;2419;51.276;6.472;2022-11-21T09:03:03;6.80;99.90
4811;DHT22;2419;51.276;6.472;2022-11-21T09:05:33;7.10;99.90
4811;DHT22;2419;51.276;6.472;2022-11-21T09:08:01;7.80;99.90
4811;DHT22;2419;51.276;6.472;2022-11-21T09:10:29;7.90;99.90
4811;DHT22;2419;51.276;6.472;2022-11-21T09:12:57;8.20;99.90
4811;DHT22;2419;51.276;6.472;2022-11-21T09:15:26;8.70;99.90
4811;DHT22;2419;51.276;6.472;2022-11-21T09:18:11;8.90;99.90
4811;DHT22;2419;51.276;6.472;2022-11-21T09:20:42;8.50;99.90
4811;DHT22;2419;51.276;6.472;2022-11-21T09:23:12;9.80;99.90
4811;DHT22;2419;51.276;6.472;2022-11-21T09:25:41;11.90;99.90
4811;DHT22;2419;51.276;6.472;2022-11-21T09:28:11;11.40;99.90
4811;DHT22;2419;51.276;6.472;2022-11-21T09:30:40;11.30;99.90
4811;DHT22;2419;51.276;6.472;2022-11-21T09:33:10;9.70;99.90
4811;DHT22;2419;51.276;6.472;2022-11-21T09:35:40;9.00;99.90
4811;DHT22;2419;51.276;6.472;2022-11-21T09:38:09;9.10;99.90
4811;DHT22;2419;51.276;6.472;2022-11-21T09:40:40;8.60;99.90
4811;DHT22;2419;51.276;6.472;2022-11-21T09:43:35;8.40;99.90
4811;DHT22;2419;51.276;6.472;2022-11-21T09:46:10;8.20;99.90
4811;DHT22;2419;51.276;6.472;2022-11-21T09:48:47;8.20;99.90
4811;DHT22;2419;51.276;6.472;2022-11-21T09:51:20;8.30;99.90
4811;DHT22;2419;51.276;6.472;2022-11-21T09:53:53;8.10;99.90
4811;DHT22;2419;51.276;6.472;2022-11-21T09:56:25;7.90;99.90
4811;DHT22;2419;51.276;6.472;2022-11-21T09:59:05;7.80;99.90
4811;DHT22;2419;51.276;6.472;2022-11-21T10:01:37;7.70;99.90
4811;DHT22;2419;51.276;6.472;2022-11-21T10:04:05;7.90;99.90
4811;DHT22;2419;51.276;6.472;2022-11-21T10:06:43;7.70;99.90
4811;DHT22;2419;51.276;6.472;2022-11-21T10:09:22;8.00;99.90
4811;DHT22;2419;51.276;6.472;2022-11-21T10:11:58;8.70;99.90
4811;DHT22;2419;51.276;6.472;2022-11-21T10:14:52;9.70;99.90
4811;DHT22;2419;51.276;6.472;2022-11-21T10:17:30;9.50;99.90
4811;DHT22;2419;51.276;6.472;2022-11-21T10:20:12;9.20;99.90
4811;DHT22;2419;51.276;6.472;2022-11-21T10:25:55;9.50;99.90
4811;DHT22;2419;51.276;6.472;2022-11-21T10:28:28;9.40;99.90
4811;DHT22;2419;51.276;6.472;2022-11-21T10:31:02;9.60;99.90
4811;DHT22;2419;51.276;6.472;2022-11-21T10:33:31;9.70;99.90
4811;DHT22;2419;51.276;6.472;2022-11-21T10:36:04;10.50;99.90
4811;DHT22;2419;51.276;6.472;2022-11-21T10:38:37;10.10;99.90
4811;DHT22;2419;51.276;6.472;2022-11-21T10:41:14;11.80;99.90
4811;DHT22;2419;51.276;6.472;2022-11-21T10:43:49;13.00;99.90
4811;DHT22;2419;51.276;6.472;2022-11-21T10:46:54;13.20;99.90
4811;DHT22;2419;51.276;6.472;2022-11-21T10:49:23;13.80;99.90
4811;DHT22;2419;51.276;6.472;2022-11-21T10:51:56;13.00;99.90
4811;DHT22;2419;51.276;6.472;2022-11-21T10:54:27;12.50;99.90
4811;DHT22;2419;51.276;6.472;2022-11-21T10:57:11;12.50;99.90
4811;DHT22;2419;51.276;6.472;2022-11-21T10:59:40;11.50;99.90
4811;DHT22;2419;51.276;6.472;2022-11-21T11:02:22;11.80;99.90
4811;DHT22;2419;51.276;6.472;2022-11-21T11:05:16;11.40;99.90
4811;DHT22;2419;51.276;6.472;2022-11-21T11:07:58;11.40;99.90
4811;DHT22;2419;51.276;6.472;2022-11-21T11:10:28;11.30;99.90
4811;DHT22;2419;51.276;6.472;2022-11-21T11:12:58;11.20;99.90
4811;DHT22;2419;51.276;6.472;2022-11-21T11:16:06;10.60;99.90
4811;DHT22;2419;51.276;6.472;2022-11-21T11:18:55;10.40;99.90
4811;DHT22;2419;51.276;6.472;2022-11-21T11:21:25;10.60;99.90
4811;DHT22;2419;51.276;6.472;2022-11-21T11:24:05;10.90;99.90
4811;DHT22;2419;51.276;6.472;2022-11-21T11:26:34;11.10;99.90
4811;DHT22;2419;51.276;6.472;2022-11-21T11:29:19;11.60;99.90
4811;DHT22;2419;51.276;6.472;2022-11-21T11:31:52;12.10;99.90
4811;DHT22;2419;51.276;6.472;2022-11-21T11:34:23;12.00;99.90
4811;DHT22;2419;51.276;6.472;2022-11-21T11:37:05;11.60;99.90
4811;DHT22;2419;51.276;6.472;2022-11-21T11:39:39;11.90;99.90
4811;DHT22;2419;51.276;6.472;2022-11-21T11:42:38;12.40;99.90
4811;DHT22;2419;51.276;6.472;2022-11-21T11:45:47;11.80;99.90
4811;DHT22;2419;51.276;6.472;2022-11-21T11:48:36;11.50;99.90
4811;DHT22;2419;51.276;6.472;2022-11-21T11:51:30;11.70;99.90
4811;DHT22;2419;51.276;6.472;2022-11-21T11:54:02;13.50;99.90
4811;DHT22;2419;51.276;6.472;2022-11-21T11:56:34;14.50;99.90
4811;DHT22;2419;51.276;6.472;2022-11-21T11:59:10;14.20;99.90
4811;DHT22;2419;51.276;6.472;2022-11-21T12:01:45;12.90;99.90
4811;DHT22;2419;51.276;6.472;2022-11-21T12:04:16;11.80;99.90
4811;DHT22;2419;51.276;6.472;2022-11-21T12:06:49;12.10;99.90
4811;DHT22;2419;51.276;6.472;2022-11-21T12:09:44;11.80;99.90
4811;DHT22;2419;51.276;6.472;2022-11-21T12:12:22;11.10;99.90
4811;DHT22;2419;51.276;6.472;2022-11-21T12:15:02;11.00;99.90
4811;DHT22;2419;51.276;6.472;2022-11-21T12:18:07;12.30;99.90
4811;DHT22;2419;51.276;6.472;2022-11-21T12:20:45;12.90;99.90
4811;DHT22;2419;51.276;6.472;2022-11-21T12:23:16;13.10;99.90
4811;DHT22;2419;51.276;6.472;2022-11-21T12:25:51;12.50;99.90
4811;DHT22;2419;51.276;6.472;2022-11-21T12:28:25;12.30;99.90
4811;DHT22;2419;51.276;6.472;2022-11-21T12:31:04;12.00;99.90
4811;DHT22;2419;51.276;6.472;2022-11-21T12:33:40;11.70;99.90
4811;DHT22;2419;51.276;6.472;2022-11-21T12:36:18;11.90;99.90
4811;DHT22;2419;51.276;6.472;2022-11-21T12:39:11;12.10;99.90
4811;DHT22;2419;51.276;6.472;2022-11-21T12:41:48;11.30;99.90
4811;DHT22;2419;51.276;6.472;2022-11-21T12:44:55;10.80;99.90
4811;DHT22;2419;51.276;6.472;2022-11-21T12:47:40;11.10;99.90
4811;DHT22;2419;51.276;6.472;2022-11-21T12:50:35;11.20;99.90
4811;DHT22;2419;51.276;6.472;2022-11-21T12:53:31;10.60;99.90
4811;DHT22;2419;51.276;6.472;2022-11-21T12:56:27;10.40;99.90
4811;DHT22;2419;51.276;6.472;2022-11-21T12:59:01;10.50;99.90
4811;DHT22;2419;51.276;6.472;2022-11-21T13:01:37;10.60;99.90
4811;DHT22;2419;51.276;6.472;2022-11-21T13:04:09;10.70;99.90
4811;DHT22;2419;51.276;6.472;2022-11-21T13:06:43;10.50;99.90
4811;DHT22;2419;51.276;6.472;2022-11-21T13:09:16;10.50;99.90
4811;DHT22;2419;51.276;6.472;2022-11-21T13:11:51;10.20;99.90
4811;DHT22;2419;51.276;6.472;2022-11-21T13:14:33;10.10;99.90
4811;DHT22;2419;51.276;6.472;2022-11-21T13:17:13;10.00;99.90
4811;DHT22;2419;51.276;6.472;2022-11-21T13:19:52;9.70;99.90
4811;DHT22;2419;51.276;6.472;2022-11-21T13:22:51;9.50;99.90
4811;DHT22;2419;51.276;6.472;2022-11-21T13:25:42;9.60;99.90
4811;DHT22;2419;51.276;6.472;2022-11-21T13:28:37;9.50;99.90
4811;DHT22;2419;51.276;6.472;2022-11-21T13:31:27;9.40;99.90
4811;DHT22;2419;51.276;6.472;2022-11-21T13:33:56;9.40;99.90
4811;DHT22;2419;51.276;6.472;2022-11-21T13:36:40;9.40;99.90
4811;DHT22;2419;51.276;6.472;2022-11-21T13:39:34;9.40;99.90
4811;DHT22;2419;51.276;6.472;2022-11-21T13:42:09;9.30;99.90
4811;DHT22;2419;51.276;6.472;2022-11-21T13:44:55;9.30;99.90
4811;DHT22;2419;51.276;6.472;2022-11-21T13:54:07;9.30;99.90
4811;DHT22;2419;51.276;6.472;2022-11-21T13:56:45;9.20;99.90
4811;DHT22;2419;51.276;6.472;2022-11-21T13:59:35;9.20;99.90
4811;DHT22;2419;51.276;6.472;2022-11-21T14:05:35;9.10;99.90
4811;DHT22;2419;51.276;6.472;2022-11-21T14:08:17;9.10;99.90
4811;DHT22;2419;51.276;6.472;2022-11-21T14:10:46;9.00;99.90
4811;DHT22;2419;51.276;6.472;2022-11-21T14:13:31;9.00;99.90
4811;DHT22;2419;51.276;6.472;2022-11-21T14:16:16;8.90;99.90
4811;DHT22;2419;51.276;6.472;2022-11-21T14:18:45;8.80;99.90
4811;DHT22;2419;51.276;6.472;2022-11-21T14:21:19;8.80;99.90
4811;DHT22;2419;51.276;6.472;2022-11-21T14:23:48;8.70;99.90
4811;DHT22;2419;51.276;6.472;2022-11-21T14:26:18;8.70;99.90
4811;DHT22;2419;51.276;6.472;2022-11-21T14:28:48;8.60;99.90
4811;DHT22;2419;51.276;6.472;2022-11-21T14:31:18;8.60;99.90
4811;DHT22;2419;51.276;6.472;2022-11-21T14:33:46;8.50;99.90
4811;DHT22;2419;51.276;6.472;2022-11-21T14:36:17;8.40;99.90
4811;DHT22;2419;51.276;6.472;2022-11-21T14:38:48;8.30;99.90
4811;DHT22;2419;51.276;6.472;2022-11-21T14:41:37;8.30;99.90
4811;DHT22;2419;51.276;6.472;2022-11-21T14:44:16;8.30;99.90
4811;DHT22;2419;51.276;6.472;2022-11-21T14:46:45;8.20;99.90
4811;DHT22;2419;51.276;6.472;2022-11-21T14:49:25;8.20;99.90
4811;DHT22;2419;51.276;6.472;2022-11-21T14:52:05;8.20;99.90
4811;DHT22;2419;51.276;6.472;2022-11-21T14:54:44;8.10;99.90
4811;DHT22;2419;51.276;6.472;2022-11-21T14:57:36;8.00;99.90
4811;DHT22;2419;51.276;6.472;2022-11-21T15:00:13;8.00;99.90
4811;DHT22;2419;51.276;6.472;2022-11-21T15:03:02;7.90;99.90
4811;DHT22;2419;51.276;6.472;2022-11-21T15:05:32;7.90;99.90
4811;DHT22;2419;51.276;6.472;2022-11-21T15:08:21;7.80;99.90
4811;DHT22;2419;51.276;6.472;2022-11-21T15:11:10;7.80;99.90
4811;DHT22;2419;51.276;6.472;2022-11-21T15:13:39;7.80;99.90
4811;DHT22;2419;51.276;6.472;2022-11-21T15:16:29;7.80;99.90
4811;DHT22;2419;51.276;6.472;2022-11-21T15:18:57;7.80;99.90
4811;DHT22;2419;51.276;6.472;2022-11-21T15:21:25;7.70;99.90
4811;DHT22;2419;51.276;6.472;2022-11-21T15:23:54;7.60;99.90
4811;DHT22;2419;51.276;6.472;2022-11-21T15:26:27;7.70;99.90
4811;DHT22;2419;51.276;6.472;2022-11-21T15:28:57;7.70;99.90
4811;DHT22;2419;51.276;6.472;2022-11-21T15:31:26;7.60;99.90
4811;DHT22;2419;51.276;6.472;2022-11-21T15:33:58;7.60;99.90
4811;DHT22;2419;51.276;6.472;2022-11-21T15:37:00;7.70;99.90
4811;DHT22;2419;51.276;6.472;2022-11-21T15:39:30;7.70;99.90
4811;DHT22;2419;51.276;6.472;2022-11-21T15:45:23;7.70;99.90
4811;DHT22;2419;51.276;6.472;2022-11-21T15:47:52;7.60;99.90
4811;DHT22;2419;51.276;6.472;2022-11-21T15:50:24;7.60;99.90
4811;DHT22;2419;51.276;6.472;2022-11-21T15:52:52;7.60;99.90
4811;DHT22;2419;51.276;6.472;2022-11-21T15:55:22;7.60;99.90
4811;DHT22;2419;51.276;6.472;2022-11-21T15:57:51;7.60;99.90
4811;DHT22;2419;51.276;6.472;2022-11-21T16:00:19;7.50;99.90
4811;DHT22;2419;51.276;6.472;2022-11-21T16:02:48;7.60;99.90
4811;DHT22;2419;51.276;6.472;2022-11-21T16:05:16;7.50;99.90
4811;DHT22;2419;51.276;6.472;2022-11-21T16:07:45;7.50;99.90
4811;DHT22;2419;51.276;6.472;2022-11-21T16:10:14;7.60;99.90
4811;DHT22;2419;51.276;6.472;2022-11-21T16:12:53;7.60;99.90
4811;DHT22;2419;51.276;6.472;2022-11-21T16:15:21;7.60;99.90
4811;DHT22;2419;51.276;6.472;2022-11-21T16:18:17;7.70;99.90
4811;DHT22;2419;51.276;6.472;2022-11-21T16:20:46;7.60;99.90
4811;DHT22;2419;51.276;6.472;2022-11-21T16:23:15;7.60;99.90
4811;DHT22;2419;51.276;6.472;2022-11-21T16:25:53;7.60;99.90
4811;DHT22;2419;51.276;6.472;2022-11-21T16:28:21;7.60;99.90
4811;DHT22;2419;51.276;6.472;2022-11-21T16:30:50;7.50;99.90
4811;DHT22;2419;51.276;6.472;2022-11-21T16:33:18;7.60;99.90
4811;DHT22;2419;51.276;6.472;2022-11-21T16:35:53;7.60;99.90
4811;DHT22;2419;51.276;6.472;2022-11-21T16:38:25;7.60;99.90
4811;DHT22;2419;51.276;6.472;2022-11-21T16:40:54;7.50;99.90
4811;DHT22;2419;51.276;6.472;2022-11-21T16:43:22;7.60;99.90
4811;DHT22;2419;51.276;6.472;2022-11-21T16:45:51;7.50;99.90
4811;DHT22;2419;51.276;6.472;2022-11-21T16:48:19;7.40;99.90
4811;DHT22;2419;51.276;6.472;2022-11-21T16:50:48;7.50;99.90
4811;DHT22;2419;51.276;6.472;2022-11-21T16:53:16;7.50;99.90
4811;DHT22;2419;51.276;6.472;2022-11-21T16:55:46;7.50;99.90
4811;DHT22;2419;51.276;6.472;2022-11-21T16:58:14;7.50;99.90
4811;DHT22;2419;51.276;6.472;2022-11-21T17:00:42;7.50;99.90
4811;DHT22;2419;51.276;6.472;2022-11-21T17:03:10;7.50;99.90
4811;DHT22;2419;51.276;6.472;2022-11-21T17:05:38;7.50;99.90
4811;DHT22;2419;51.276;6.472;2022-11-21T17:08:06;7.50;99.90